createdAt,value
2018-03-21T00:00:46.802Z,17.70
2018-03-21T00:03:13.181Z,10.32
2018-03-21T00:05:40.383Z,13.55
2018-03-21T00:08:06.770Z,16.70
2018-03-21T00:10:33.922Z,16.73
2018-03-21T00:13:01.041Z,6.10
2018-03-21T00:15:27.495Z,14.93
2018-03-21T00:17:54.602Z,20.25
2018-03-21T00:20:20.977Z,18.65
2018-03-21T00:22:47.418Z,14.13
2018-03-21T00:25:13.775Z,21.40
2018-03-21T00:27:40.223Z,11.65
2018-03-21T00:30:06.636Z,16.70
2018-03-21T00:32:33.028Z,14.30
2018-03-21T00:35:00.138Z,18.00
2018-03-21T00:37:26.527Z,12.10
2018-03-21T00:39:52.950Z,16.15
2018-03-21T00:42:19.357Z,13.90
2018-03-21T00:44:46.455Z,19.08
2018-03-21T00:47:12.865Z,12.70
2018-03-21T00:49:39.218Z,9.80
2018-03-21T00:52:05.593Z,17.15
2018-03-21T00:54:32.710Z,18.20
2018-03-21T00:56:59.088Z,14.82
2018-03-21T00:59:26.251Z,9.57
2018-03-21T01:01:52.634Z,13.35
2018-03-21T01:04:19.121Z,10.70
2018-03-21T01:06:45.501Z,15.27
2018-03-21T01:09:11.939Z,13.48
2018-03-21T01:11:38.327Z,19.37
2018-03-21T01:14:04.801Z,11.10
2018-03-21T01:16:31.173Z,15.55
2018-03-21T01:18:57.555Z,10.65
2018-03-21T01:21:24.690Z,10.38
2018-03-21T01:23:51.090Z,18.15
2018-03-21T01:26:17.504Z,12.15
2018-03-21T01:28:44.615Z,8.98
2018-03-21T01:31:11.028Z,11.50
2018-03-21T01:33:37.474Z,14.60
2018-03-21T01:36:03.880Z,9.77
2018-03-21T01:38:30.330Z,15.45
2018-03-21T01:40:56.712Z,11.55
2018-03-21T01:43:23.194Z,7.18
2018-03-21T01:45:49.630Z,8.80
2018-03-21T01:48:16.026Z,12.20
2018-03-21T01:50:42.438Z,7.28
2018-03-21T01:53:09.689Z,11.20
2018-03-21T01:55:36.081Z,10.55
2018-03-21T01:58:02.512Z,10.48
2018-03-21T02:00:28.882Z,11.45
2018-03-21T02:02:55.268Z,9.73
2018-03-21T02:05:21.658Z,8.82
2018-03-21T02:07:48.061Z,16.55
2018-03-21T02:10:15.180Z,6.80
2018-03-21T02:12:41.573Z,7.62
2018-03-21T02:15:07.986Z,12.32
2018-03-21T02:17:34.342Z,10.18
2018-03-21T02:20:00.729Z,10.70
2018-03-21T02:22:27.874Z,7.75
2018-03-21T02:24:54.265Z,6.97
2018-03-21T02:27:20.635Z,14.55
2018-03-21T02:29:47.789Z,18.23
2018-03-21T02:32:14.907Z,11.12
2018-03-21T02:34:41.313Z,10.18
2018-03-21T02:37:07.720Z,11.95
2018-03-21T02:39:34.145Z,12.25
2018-03-21T02:42:00.538Z,15.45
2018-03-21T02:44:27.700Z,8.98
2018-03-21T02:46:54.103Z,10.00
2018-03-21T02:49:20.454Z,11.10
2018-03-21T02:51:47.584Z,13.90
2018-03-21T02:54:13.928Z,11.98
2018-03-21T02:56:41.150Z,10.52
2018-03-21T02:59:07.503Z,16.85
2018-03-21T03:01:33.916Z,6.87
2018-03-21T03:04:00.273Z,9.85
2018-03-21T03:06:27.487Z,11.52
2018-03-21T03:08:53.931Z,9.32
2018-03-21T03:11:20.295Z,15.18
2018-03-21T03:13:47.428Z,8.35
2018-03-21T03:16:14.567Z,11.93
2018-03-21T03:18:40.987Z,8.63
2018-03-21T03:21:07.376Z,12.48
2018-03-21T03:23:33.764Z,11.88
2018-03-21T03:26:00.146Z,14.60
2018-03-21T03:28:26.533Z,9.75
2018-03-21T03:30:53.653Z,14.32
2018-03-21T03:33:20.069Z,7.85
2018-03-21T03:35:46.468Z,6.90
2018-03-21T03:38:12.860Z,25.77
2018-03-21T03:40:39.281Z,13.60
2018-03-21T03:43:05.640Z,10.77
2018-03-21T03:45:32.058Z,13.00
2018-03-21T03:47:58.402Z,12.82
2018-03-21T03:50:25.558Z,15.30
2018-03-21T03:52:51.930Z,10.85
2018-03-21T03:55:18.321Z,12.75
2018-03-21T03:57:45.447Z,8.38
2018-03-21T04:00:11.971Z,14.52
2018-03-21T04:02:38.358Z,12.37
2018-03-21T04:05:04.837Z,13.30
2018-03-21T04:07:31.226Z,12.45
2018-03-21T04:09:57.664Z,12.70
2018-03-21T04:12:24.053Z,15.73
2018-03-21T04:14:52.087Z,11.77
2018-03-21T04:17:18.466Z,10.25
2018-03-21T04:19:44.863Z,12.57
2018-03-21T04:22:11.334Z,15.27
2018-03-21T04:24:37.725Z,12.95
2018-03-21T04:27:04.137Z,7.95
2018-03-21T04:29:30.513Z,10.98
2018-03-21T04:31:56.883Z,18.80
2018-03-21T04:34:23.263Z,16.83
2018-03-21T04:36:50.389Z,16.50
2018-03-21T04:39:16.781Z,13.90
2018-03-21T04:41:43.157Z,15.02
2018-03-21T04:44:09.581Z,13.68
2018-03-21T04:46:35.971Z,12.40
2018-03-21T04:49:02.431Z,12.85
2018-03-21T04:51:28.835Z,16.70
2018-03-21T04:53:55.279Z,11.93
2018-03-21T04:56:21.660Z,14.02
2018-03-21T04:58:48.094Z,19.05
2018-03-21T05:01:14.555Z,18.17
2018-03-21T05:03:40.933Z,19.15
2018-03-21T05:06:08.471Z,12.88
2018-03-21T05:08:34.841Z,10.98
2018-03-21T05:11:01.947Z,20.15
2018-03-21T05:13:28.325Z,15.18
2018-03-21T05:15:55.452Z,13.68
2018-03-21T05:18:22.560Z,16.55
2018-03-21T05:20:48.934Z,12.43
2018-03-21T05:23:15.318Z,14.00
2018-03-21T05:25:42.610Z,17.20
2018-03-21T05:28:09.005Z,14.35
2018-03-21T05:30:35.384Z,16.40
2018-03-21T05:33:02.578Z,19.37
2018-03-21T05:35:28.974Z,17.02
2018-03-21T05:37:56.152Z,11.05
2018-03-21T05:40:22.541Z,23.52
2018-03-21T05:42:49.700Z,20.90
2018-03-21T05:45:16.889Z,18.58
2018-03-21T05:47:43.376Z,16.08
2018-03-21T05:50:10.544Z,15.57
2018-03-21T05:52:36.937Z,13.68
2018-03-21T05:55:03.407Z,14.00
2018-03-21T05:57:29.865Z,24.15
2018-03-21T05:59:56.232Z,22.80
2018-03-21T06:02:22.630Z,26.27
2018-03-21T06:04:49.066Z,15.57
2018-03-21T06:07:15.480Z,26.27
2018-03-21T06:09:41.911Z,17.10
2018-03-21T06:12:08.365Z,18.48
2018-03-21T06:14:34.786Z,16.45
2018-03-21T06:17:01.353Z,22.58
2018-03-21T06:19:27.755Z,19.55
2018-03-21T06:21:54.170Z,19.92
2018-03-21T06:24:20.622Z,18.90
2018-03-21T06:26:47.021Z,20.00
2018-03-21T06:29:13.400Z,17.42
2018-03-21T06:31:39.841Z,16.48
2018-03-21T06:34:06.216Z,30.42
2018-03-21T06:36:32.700Z,11.25
2018-03-21T06:38:59.138Z,18.17
2018-03-21T06:41:25.657Z,25.65
2018-03-21T06:43:52.028Z,22.80
2018-03-21T06:46:18.478Z,23.58
2018-03-21T06:48:44.872Z,22.95
2018-03-21T06:51:11.279Z,23.17
2018-03-21T06:53:37.710Z,17.67
2018-03-21T06:56:04.130Z,30.67
2018-03-21T06:58:30.604Z,15.27
2018-03-21T07:00:57.754Z,18.15
2018-03-21T07:03:24.902Z,19.50
2018-03-21T07:05:52.045Z,26.02
2018-03-21T07:08:18.437Z,20.95
2018-03-21T07:10:44.931Z,24.65
2018-03-21T07:13:11.388Z,12.27
2018-03-21T07:15:56.342Z,19.62
2018-03-21T07:18:22.759Z,6.55
2018-03-21T07:20:50.006Z,6.00
2018-03-21T07:23:16.423Z,18.40
2018-03-21T07:25:42.840Z,16.87
2018-03-21T07:28:09.229Z,20.17
2018-03-21T07:30:35.634Z,19.45
2018-03-21T07:33:02.795Z,19.83
2018-03-21T07:35:29.196Z,10.07
2018-03-21T07:37:55.561Z,17.33
2018-03-21T07:40:21.929Z,22.30
2018-03-21T07:42:48.292Z,19.87
2018-03-21T07:45:14.720Z,19.52
2018-03-21T07:47:41.115Z,19.55
2018-03-21T07:50:07.511Z,14.57
2018-03-21T07:52:33.979Z,17.83
2018-03-21T07:55:00.349Z,8.88
2018-03-21T07:57:27.530Z,18.08
2018-03-21T07:59:53.970Z,14.90
2018-03-21T08:02:20.408Z,9.93
2018-03-21T08:04:46.804Z,17.98
2018-03-21T08:07:13.228Z,14.20
2018-03-21T08:09:40.345Z,14.68
2018-03-21T08:12:06.787Z,16.20
2018-03-21T08:14:33.209Z,18.95
2018-03-21T08:16:59.611Z,16.00
2018-03-21T08:19:26.017Z,20.92
2018-03-21T08:21:52.486Z,13.05
2018-03-21T08:24:18.854Z,13.62
2018-03-21T08:26:45.225Z,20.08
2018-03-21T08:29:11.693Z,9.27
2018-03-21T08:31:38.125Z,8.40
2018-03-21T08:34:04.588Z,12.63
2018-03-21T08:36:31.722Z,12.98
2018-03-21T08:38:58.102Z,7.75
2018-03-21T08:41:24.534Z,10.85
2018-03-21T08:43:50.954Z,10.75
2018-03-21T08:46:17.350Z,7.57
2018-03-21T08:48:43.766Z,9.48
2018-03-21T08:51:10.147Z,5.80
2018-03-21T08:53:36.519Z,10.90
2018-03-21T08:56:02.994Z,7.62
2018-03-21T08:58:29.397Z,5.45
2018-03-21T09:00:55.785Z,11.55
2018-03-21T09:03:22.181Z,8.40
2018-03-21T09:05:49.316Z,11.40
2018-03-21T09:08:15.682Z,8.27
2018-03-21T09:10:42.081Z,3.05
2018-03-21T09:13:09.265Z,4.20
2018-03-21T09:15:35.689Z,2.03
2018-03-21T09:18:02.165Z,7.82
2018-03-21T09:20:28.561Z,5.28
2018-03-21T09:22:55.007Z,3.67
2018-03-21T09:25:21.428Z,9.60
2018-03-21T09:27:47.875Z,3.87
2018-03-21T09:30:14.271Z,5.22
2018-03-21T09:32:40.663Z,3.50
2018-03-21T09:35:07.114Z,4.32
2018-03-21T09:37:33.534Z,7.00
2018-03-21T09:39:59.934Z,8.50
2018-03-21T09:42:26.350Z,6.82
2018-03-21T09:44:52.773Z,7.43
2018-03-21T09:47:19.130Z,7.68
2018-03-21T09:49:45.534Z,3.53
2018-03-21T09:52:11.909Z,2.20
2018-03-21T09:54:42.296Z,7.15
2018-03-21T09:57:08.649Z,4.35
2018-03-21T09:59:35.042Z,3.65
2018-03-21T10:02:01.437Z,4.50
2018-03-21T10:04:27.826Z,2.62
2018-03-21T10:06:54.214Z,8.35
2018-03-21T10:09:20.580Z,4.60
2018-03-21T10:11:47.111Z,4.12
2018-03-21T10:14:13.494Z,4.35
2018-03-21T10:16:40.637Z,7.68
2018-03-21T10:19:07.858Z,9.55
2018-03-21T10:21:34.258Z,5.85
2018-03-21T10:24:00.657Z,8.60
2018-03-21T10:26:27.065Z,3.30
2018-03-21T10:28:53.576Z,3.67
2018-03-21T10:31:20.013Z,7.40
2018-03-21T10:33:46.431Z,3.58
2018-03-21T10:36:12.771Z,4.93
2018-03-21T10:38:39.206Z,8.57
2018-03-21T10:41:05.581Z,4.47
2018-03-21T10:43:32.764Z,10.95
2018-03-21T10:45:59.145Z,3.83
2018-03-21T10:48:25.547Z,1.55
2018-03-21T10:50:52.165Z,8.30
2018-03-21T10:53:18.590Z,5.80
2018-03-21T10:55:45.010Z,7.95
2018-03-21T10:58:11.406Z,5.50
2018-03-21T11:00:37.812Z,4.50
2018-03-21T11:03:04.238Z,6.10
2018-03-21T11:05:30.717Z,4.53
2018-03-21T11:07:57.822Z,6.12
2018-03-21T11:10:24.972Z,1.80
2018-03-21T11:12:51.369Z,7.30
2018-03-21T11:15:17.802Z,18.73
2018-03-21T11:17:44.181Z,5.97
2018-03-21T11:20:10.529Z,4.07
2018-03-21T11:22:37.725Z,4.03
2018-03-21T11:25:04.074Z,3.50
2018-03-21T11:27:30.419Z,3.53
2018-03-21T11:29:56.792Z,4.37
2018-03-21T11:32:23.297Z,7.18
2018-03-21T11:34:50.454Z,2.90
2018-03-21T11:37:16.853Z,5.40
2018-03-21T11:39:43.366Z,9.02
2018-03-21T11:42:09.804Z,2.95
2018-03-21T11:44:36.173Z,3.45
2018-03-21T11:47:02.574Z,5.37
2018-03-21T11:49:28.967Z,5.70
2018-03-21T11:51:55.380Z,5.78
2018-03-21T11:54:22.479Z,3.03
2018-03-21T11:56:48.869Z,10.57
2018-03-21T11:59:15.301Z,1.90
2018-03-21T12:01:41.690Z,3.80
2018-03-21T12:04:08.145Z,5.35
2018-03-21T12:06:35.318Z,3.37
2018-03-21T12:09:01.738Z,12.30
2018-03-21T12:11:28.136Z,3.55
2018-03-21T12:13:54.572Z,5.68
2018-03-21T12:16:20.993Z,2.03
2018-03-21T12:18:47.388Z,5.90
2018-03-21T12:21:13.791Z,4.45
2018-03-21T12:23:40.153Z,6.15
2018-03-21T12:26:06.584Z,6.85
2018-03-21T12:28:32.929Z,5.70
2018-03-21T12:30:59.350Z,11.02
2018-03-21T12:33:25.819Z,8.15
2018-03-21T12:35:52.232Z,2.70
2018-03-21T12:38:18.621Z,2.87
2018-03-21T12:40:45.056Z,5.40
2018-03-21T12:43:11.522Z,4.22
2018-03-21T12:45:37.864Z,5.12
2018-03-21T12:48:04.284Z,8.63
2018-03-21T12:50:31.587Z,2.65
2018-03-21T12:52:58.697Z,6.78
2018-03-21T12:55:25.057Z,8.43
2018-03-21T12:57:53.254Z,4.55
2018-03-21T13:00:19.637Z,2.15
2018-03-21T13:02:46.062Z,6.05
2018-03-21T13:05:12.455Z,6.43
2018-03-21T13:07:38.843Z,7.28
2018-03-21T13:10:06.048Z,7.65
2018-03-21T13:12:32.408Z,3.62
2018-03-21T13:14:58.821Z,3.92
2018-03-21T13:17:25.222Z,5.68
2018-03-21T13:19:51.595Z,6.00
2018-03-21T13:22:18.036Z,5.00
2018-03-21T13:24:45.170Z,3.75
2018-03-21T13:27:11.565Z,3.47
2018-03-21T13:29:37.967Z,4.90
2018-03-21T13:32:05.102Z,4.78
2018-03-21T13:34:32.225Z,6.97
2018-03-21T13:36:58.648Z,6.15
2018-03-21T13:39:25.021Z,4.62
2018-03-21T13:41:52.167Z,5.93
2018-03-21T13:44:18.553Z,1.80
2018-03-21T13:46:45.752Z,3.78
2018-03-21T13:49:12.159Z,5.62
2018-03-21T13:51:38.569Z,5.35
2018-03-21T13:54:05.000Z,4.00
2018-03-21T13:56:31.442Z,3.72
2018-03-21T13:58:57.830Z,5.05
2018-03-21T14:01:24.187Z,4.68
2018-03-21T14:03:50.636Z,2.72
2018-03-21T14:06:17.018Z,6.28
2018-03-21T14:08:43.544Z,5.43
2018-03-21T14:11:10.708Z,2.67
2018-03-21T14:13:37.202Z,5.35
2018-03-21T14:16:04.389Z,3.47
2018-03-21T14:18:30.801Z,3.45
2018-03-21T14:20:58.313Z,3.40
2018-03-21T14:23:24.709Z,5.68
2018-03-21T14:25:51.142Z,4.93
2018-03-21T14:28:17.574Z,2.25
2018-03-21T14:30:44.783Z,2.40
2018-03-21T14:33:11.168Z,4.30
2018-03-21T14:35:37.564Z,3.37
2018-03-21T14:38:04.750Z,3.60
2018-03-21T14:40:31.157Z,2.47
2018-03-21T14:42:57.511Z,2.60
2018-03-21T14:45:25.095Z,6.55
2018-03-21T14:47:51.460Z,2.95
2018-03-21T14:50:18.625Z,4.70
2018-03-21T14:52:44.988Z,2.00
2018-03-21T14:55:11.362Z,5.10
2018-03-21T14:57:38.589Z,4.30
2018-03-21T15:00:05.048Z,3.62
2018-03-21T15:02:32.164Z,2.20
2018-03-21T15:04:58.627Z,3.30
2018-03-21T15:07:25.748Z,3.12
2018-03-21T15:09:52.210Z,1.55
2018-03-21T15:12:18.612Z,5.00
2018-03-21T15:14:45.052Z,4.90
2018-03-21T15:17:11.484Z,5.60
2018-03-21T15:19:37.864Z,2.03
2018-03-21T15:22:04.307Z,3.05
2018-03-21T15:24:30.765Z,3.60
2018-03-21T15:27:03.920Z,3.12
2018-03-21T15:29:30.365Z,1.45
2018-03-21T15:31:56.787Z,3.58
2018-03-21T15:34:23.135Z,3.40
2018-03-21T15:36:49.573Z,4.35
2018-03-21T15:39:16.048Z,2.20
2018-03-21T15:41:43.163Z,1.50
2018-03-21T15:44:09.552Z,3.80
2018-03-21T15:46:35.949Z,3.25
2018-03-21T15:49:02.403Z,1.70
2018-03-21T15:51:28.826Z,3.67
2018-03-21T15:53:55.334Z,6.70
2018-03-21T15:56:22.502Z,2.03
2018-03-21T15:58:48.876Z,2.22
2018-03-21T16:01:15.293Z,5.10
2018-03-21T16:03:41.685Z,2.87
2018-03-21T16:06:08.891Z,3.97
2018-03-21T16:08:35.268Z,4.32
2018-03-21T16:11:02.379Z,6.28
2018-03-21T16:13:28.862Z,3.30
2018-03-21T16:15:55.274Z,4.03
2018-03-21T16:18:22.415Z,4.72
2018-03-21T16:20:49.569Z,2.92
2018-03-21T16:23:17.514Z,2.37
2018-03-21T16:25:43.911Z,3.65
2018-03-21T16:28:10.308Z,3.47
2018-03-21T16:30:37.506Z,3.12
2018-03-21T16:33:03.891Z,3.28
2018-03-21T16:35:31.106Z,4.00
2018-03-21T16:37:58.256Z,4.75
2018-03-21T16:40:25.608Z,2.90
2018-03-21T16:42:52.141Z,2.87
2018-03-21T16:45:22.407Z,2.67
2018-03-21T16:47:54.090Z,4.90
2018-03-21T16:50:20.585Z,2.80
2018-03-21T16:52:47.806Z,6.18
2018-03-21T16:55:14.164Z,2.62
2018-03-21T16:57:40.614Z,5.68
2018-03-21T17:00:07.091Z,3.37
2018-03-21T17:02:33.503Z,2.25
2018-03-21T17:04:59.916Z,4.78
2018-03-21T17:07:26.415Z,5.78
2018-03-21T17:09:52.893Z,6.78
2018-03-21T17:12:19.323Z,1.50
2018-03-21T17:14:45.768Z,2.20
2018-03-21T17:17:12.219Z,7.03
2018-03-21T17:19:38.600Z,6.22
2018-03-21T17:22:05.064Z,6.18
2018-03-21T17:24:31.498Z,3.70
2018-03-21T17:26:57.924Z,3.87
2018-03-21T17:29:24.367Z,3.65
2018-03-21T17:31:50.799Z,2.85
2018-03-21T17:34:17.224Z,1.48
2018-03-21T17:36:43.668Z,6.85
2018-03-21T17:39:10.166Z,4.15
2018-03-21T17:41:36.609Z,3.08
2018-03-21T17:44:03.058Z,3.40
2018-03-21T17:46:29.499Z,2.37
2018-03-21T17:48:55.959Z,0.80
2018-03-21T17:51:23.114Z,2.35
2018-03-21T17:53:50.264Z,3.85
2018-03-21T17:56:16.875Z,3.28
2018-03-21T17:58:43.383Z,1.70
2018-03-21T18:01:09.864Z,2.45
2018-03-21T18:03:36.993Z,5.37
2018-03-21T18:06:03.518Z,2.75
2018-03-21T18:08:29.939Z,4.70
2018-03-21T18:10:56.381Z,4.05
2018-03-21T18:13:22.884Z,3.75
2018-03-21T18:15:49.386Z,1.95
2018-03-21T18:18:15.819Z,3.72
2018-03-21T18:20:42.299Z,6.65
2018-03-21T18:23:08.795Z,4.70
2018-03-21T18:25:35.298Z,6.93
2018-03-21T18:28:01.797Z,5.12
2018-03-21T18:30:28.277Z,5.65
2018-03-21T18:32:54.840Z,4.57
2018-03-21T18:35:21.388Z,4.25
2018-03-21T18:37:47.821Z,2.45
2018-03-21T18:40:14.261Z,3.10
2018-03-21T18:42:41.506Z,6.28
2018-03-21T18:45:07.943Z,7.75
2018-03-21T18:47:36.310Z,8.40
2018-03-21T18:50:02.790Z,5.25
2018-03-21T18:52:29.995Z,5.25
2018-03-21T18:54:56.461Z,3.47
2018-03-21T18:57:23.676Z,12.52
2018-03-21T18:59:50.109Z,8.70
2018-03-21T19:02:16.505Z,5.32
2018-03-21T19:04:42.925Z,7.53
2018-03-21T19:07:10.175Z,5.78
2018-03-21T19:09:36.594Z,2.92
2018-03-21T19:12:03.034Z,5.45
2018-03-21T19:14:30.245Z,6.82
2018-03-21T19:16:56.668Z,2.67
2018-03-21T19:19:23.163Z,7.87
2018-03-21T19:21:49.532Z,5.70
2018-03-21T19:24:16.186Z,4.95
2018-03-21T19:26:43.418Z,3.67
2018-03-21T19:29:09.862Z,5.80
2018-03-21T19:31:36.318Z,2.87
2018-03-21T19:34:03.561Z,3.83
2018-03-21T19:36:30.019Z,4.70
2018-03-21T19:38:56.511Z,8.43
2018-03-21T19:41:22.962Z,5.20
2018-03-21T19:43:50.111Z,3.58
2018-03-21T19:46:17.363Z,3.70
2018-03-21T19:48:44.626Z,3.45
2018-03-21T19:51:11.053Z,4.20
2018-03-21T19:53:38.240Z,2.92
2018-03-21T19:56:04.711Z,3.90
2018-03-21T19:58:31.917Z,3.08
2018-03-21T20:00:58.356Z,7.55
2018-03-21T20:03:24.786Z,5.20
2018-03-21T20:05:51.543Z,6.22
2018-03-21T20:08:17.997Z,10.30
2018-03-21T20:10:44.446Z,5.03
2018-03-21T20:13:10.954Z,6.85
2018-03-21T20:15:37.460Z,4.60
2018-03-21T20:18:04.011Z,6.93
2018-03-21T20:20:30.493Z,8.90
2018-03-21T20:22:57.757Z,5.55
2018-03-21T20:25:24.250Z,6.78
2018-03-21T20:27:50.726Z,4.72
2018-03-21T20:30:17.232Z,4.25
2018-03-21T20:32:43.811Z,6.57
2018-03-21T20:35:10.337Z,11.65
2018-03-21T20:37:36.906Z,8.98
2018-03-21T20:40:03.507Z,8.57
2018-03-21T20:42:29.940Z,5.12
2018-03-21T20:44:56.540Z,3.47
2018-03-21T20:47:23.122Z,5.82
2018-03-21T20:49:49.656Z,5.72
2018-03-21T20:52:16.108Z,8.55
2018-03-21T20:54:42.693Z,6.20
2018-03-21T20:57:09.127Z,3.87
2018-03-21T20:59:35.646Z,6.53
2018-03-21T21:02:02.137Z,4.93
2018-03-21T21:04:28.642Z,3.50
2018-03-21T21:06:55.110Z,10.55
2018-03-21T21:09:21.551Z,10.30
2018-03-21T21:11:47.965Z,7.15
2018-03-21T21:14:14.400Z,7.78
2018-03-21T21:16:40.869Z,8.15
2018-03-21T21:19:08.019Z,2.25
2018-03-21T21:21:35.221Z,5.43
2018-03-21T21:24:01.662Z,5.15
2018-03-21T21:26:28.125Z,5.70
2018-03-21T21:28:55.294Z,5.10
2018-03-21T21:31:21.734Z,3.33
2018-03-21T21:33:48.189Z,3.55
2018-03-21T21:36:14.696Z,3.42
2018-03-21T21:38:41.092Z,4.68
2018-03-21T21:41:07.552Z,4.50
2018-03-21T21:43:34.765Z,5.05
2018-03-21T21:46:01.211Z,9.45
2018-03-21T21:48:27.611Z,5.15
2018-03-21T21:50:54.079Z,21.48
2018-03-21T21:53:20.529Z,5.93
2018-03-21T21:55:47.696Z,9.25
2018-03-21T21:58:14.140Z,10.57
2018-03-21T22:00:40.521Z,8.10
2018-03-21T22:03:06.941Z,10.43
2018-03-21T22:05:33.379Z,8.98
2018-03-21T22:08:00.573Z,8.18
2018-03-21T22:10:27.155Z,9.07
2018-03-21T22:12:53.660Z,6.03
2018-03-21T22:15:22.147Z,8.10
2018-03-21T22:17:48.634Z,7.18
2018-03-21T22:20:15.063Z,6.57
2018-03-21T22:22:41.454Z,9.57
2018-03-21T22:25:07.866Z,9.05
2018-03-21T22:27:34.295Z,6.32
2018-03-21T22:30:00.730Z,9.00
2018-03-21T22:32:27.156Z,14.00
2018-03-21T22:34:53.545Z,14.18
2018-03-21T22:37:19.970Z,7.18
2018-03-21T22:39:46.364Z,5.70
2018-03-21T22:42:12.903Z,6.80
2018-03-21T22:44:40.078Z,14.40
2018-03-21T22:47:06.567Z,9.77
2018-03-21T22:49:33.050Z,10.25
2018-03-21T22:51:59.470Z,7.10
2018-03-21T22:54:26.022Z,9.05
2018-03-21T22:56:52.437Z,7.15
2018-03-21T22:59:19.688Z,5.78
2018-03-21T23:01:46.102Z,11.70
2018-03-21T23:04:12.510Z,4.85
2018-03-21T23:06:38.968Z,12.35
2018-03-21T23:09:05.411Z,11.05
2018-03-21T23:11:31.793Z,12.10
2018-03-21T23:13:58.295Z,8.93
2018-03-21T23:16:25.438Z,9.25
2018-03-21T23:18:52.570Z,12.02
2018-03-21T23:21:19.004Z,8.02
2018-03-21T23:23:45.493Z,6.75
2018-03-21T23:26:12.003Z,6.05
2018-03-21T23:28:39.228Z,7.68
2018-03-21T23:31:06.379Z,4.57
2018-03-21T23:33:32.758Z,7.18
2018-03-21T23:35:59.260Z,4.35
2018-03-21T23:38:25.705Z,6.57
2018-03-21T23:40:52.283Z,5.55
2018-03-21T23:43:18.750Z,7.32
2018-03-21T23:45:45.338Z,6.50
2018-03-21T23:48:12.540Z,10.15
2018-03-21T23:50:39.732Z,9.05
2018-03-21T23:53:06.103Z,6.00
2018-03-21T23:55:32.561Z,7.97
2018-03-21T23:57:59.026Z,6.50
